createdAt,value
2019-06-01T00:01:55.591Z,17.79
2019-06-01T00:04:27.441Z,17.79
2019-06-01T00:06:58.124Z,17.72
2019-06-01T00:09:28.695Z,17.62
2019-06-01T00:11:59.301Z,17.63
2019-06-01T00:14:30.299Z,17.63
2019-06-01T00:17:01.026Z,17.66
2019-06-01T00:19:31.606Z,17.74
2019-06-01T00:22:02.196Z,17.73
2019-06-01T00:24:32.916Z,17.78
2019-06-01T00:27:03.821Z,17.75
2019-06-01T00:29:34.423Z,17.79
2019-06-01T00:32:05.166Z,17.79
2019-06-01T00:34:35.804Z,17.79
2019-06-01T00:37:06.403Z,17.77
2019-06-01T00:39:37.087Z,17.69
2019-06-01T00:42:07.714Z,17.75
2019-06-01T00:44:38.392Z,17.64
2019-06-01T00:47:08.969Z,17.55
2019-06-01T00:49:39.543Z,17.52
2019-06-01T00:52:10.235Z,17.66
2019-06-01T00:54:40.821Z,17.77
2019-06-01T00:57:11.411Z,17.69
2019-06-01T00:59:41.999Z,17.70
2019-06-01T01:02:13.658Z,17.64
2019-06-01T01:04:44.394Z,17.55
2019-06-01T01:07:15.036Z,17.53
2019-06-01T01:09:46.802Z,17.57
2019-06-01T01:12:17.569Z,17.60
2019-06-01T01:14:49.208Z,17.60
2019-06-01T01:17:20.850Z,17.55
2019-06-01T01:19:51.946Z,17.55
2019-06-01T01:22:22.584Z,17.54
2019-06-01T01:24:54.484Z,17.45
2019-06-01T01:27:25.319Z,17.40
2019-06-01T01:29:57.030Z,17.27
2019-06-01T01:32:27.758Z,17.31
2019-06-01T01:35:31.796Z,17.32
2019-06-01T01:38:02.375Z,17.35
2019-06-01T01:40:33.338Z,17.35
2019-06-01T01:43:04.597Z,17.37
2019-06-01T01:45:35.190Z,17.39
2019-06-01T01:48:07.305Z,17.37
2019-06-01T01:50:38.006Z,17.42
2019-06-01T01:53:10.273Z,17.40
2019-06-01T01:55:40.847Z,17.32
2019-06-01T01:58:11.428Z,17.45
2019-06-01T02:00:44.955Z,17.37
2019-06-01T02:03:15.831Z,17.20
2019-06-01T02:05:46.627Z,17.13
2019-06-01T02:08:17.342Z,17.19
2019-06-01T02:10:48.295Z,17.22
2019-06-01T02:13:18.893Z,17.30
2019-06-01T02:15:49.581Z,17.36
2019-06-01T02:18:20.648Z,17.38
2019-06-01T02:20:52.258Z,17.30
2019-06-01T02:23:23.308Z,17.32
2019-06-01T02:25:55.061Z,17.22
2019-06-01T02:28:25.623Z,17.26
2019-06-01T02:30:57.826Z,17.30
2019-06-01T02:33:29.636Z,17.41
2019-06-01T02:36:00.842Z,17.38
2019-06-01T02:38:32.690Z,17.30
2019-06-01T02:41:05.162Z,17.24
2019-06-01T02:43:35.624Z,17.23
2019-06-01T02:46:07.452Z,17.25
2019-06-01T02:48:38.257Z,17.27
2019-06-01T02:51:09.812Z,17.35
2019-06-01T02:53:40.390Z,17.39
2019-06-01T02:56:10.970Z,17.16
2019-06-01T02:58:41.652Z,17.11
2019-06-01T03:01:20.852Z,17.11
2019-06-01T03:03:52.362Z,17.17
2019-06-01T03:06:23.477Z,17.24
2019-06-01T03:08:57.706Z,17.36
2019-06-01T03:11:31.439Z,17.37
2019-06-01T03:14:06.609Z,17.39
2019-06-01T03:16:42.502Z,17.36
2019-06-01T03:19:16.646Z,17.40
2019-06-01T03:21:49.913Z,17.49
2019-06-01T03:24:23.897Z,17.54
2019-06-01T03:26:55.921Z,17.53
2019-06-01T03:29:29.444Z,17.51
2019-06-01T03:32:19.030Z,17.58
2019-06-01T03:34:33.019Z,17.61
2019-06-01T03:37:04.874Z,17.76
2019-06-01T03:39:35.853Z,17.81
2019-06-01T03:42:08.008Z,17.86
2019-06-01T03:44:39.957Z,17.88
2019-06-01T03:47:11.835Z,17.91
2019-06-01T03:49:42.716Z,17.90
2019-06-01T03:52:13.486Z,17.89
2019-06-01T03:54:44.153Z,17.82
2019-06-01T03:57:14.737Z,17.92
2019-06-01T03:59:45.411Z,18.01
2019-06-01T04:02:16.090Z,18.06
2019-06-01T04:04:46.881Z,18.09
2019-06-01T04:07:19.630Z,18.23
2019-06-01T04:09:50.391Z,18.27
2019-06-01T04:12:21.062Z,18.32
2019-06-01T04:14:52.958Z,18.38
2019-06-01T04:17:23.617Z,18.40
2019-06-01T04:19:54.396Z,18.40
2019-06-01T04:22:25.094Z,18.45
2019-06-01T04:24:56.844Z,18.51
2019-06-01T04:27:27.653Z,18.48
2019-06-01T04:29:58.404Z,18.46
2019-06-01T04:32:29.202Z,18.43
2019-06-01T04:35:00.008Z,18.46
2019-06-01T04:37:31.953Z,18.50
2019-06-01T04:40:03.325Z,18.57
2019-06-01T04:42:34.206Z,18.64
2019-06-01T04:45:09.037Z,18.42
2019-06-01T04:47:39.571Z,18.42
2019-06-01T04:50:13.042Z,18.55
2019-06-01T04:52:43.767Z,18.76
2019-06-01T04:55:15.190Z,18.76
2019-06-01T04:57:46.029Z,18.82
2019-06-01T05:00:26.005Z,18.77
2019-06-01T05:03:02.231Z,18.97
2019-06-01T05:05:22.399Z,19.08
2019-06-01T05:07:54.157Z,19.21
2019-06-01T05:10:25.808Z,19.35
2019-06-01T05:12:56.589Z,19.35
2019-06-01T05:15:27.265Z,19.35
2019-06-01T05:17:58.039Z,19.50
2019-06-01T05:20:28.664Z,19.47
2019-06-01T05:22:59.395Z,19.51
2019-06-01T05:25:30.360Z,19.70
2019-06-01T05:28:01.123Z,19.91
2019-06-01T05:30:31.835Z,20.06
2019-06-01T05:33:02.542Z,20.20
2019-06-01T05:35:33.206Z,20.29
2019-06-01T05:38:04.095Z,20.40
2019-06-01T05:40:34.852Z,20.55
2019-06-01T05:43:05.642Z,20.59
2019-06-01T05:45:36.323Z,20.72
2019-06-01T05:48:07.092Z,20.85
2019-06-01T05:50:37.887Z,20.96
2019-06-01T05:53:08.982Z,21.32
2019-06-01T05:55:39.688Z,21.63
2019-06-01T05:58:10.920Z,21.63
2019-06-01T06:00:47.482Z,21.76
2019-06-01T06:03:22.174Z,21.68
2019-06-01T06:05:50.739Z,22.12
2019-06-01T06:08:22.214Z,23.37
2019-06-01T06:10:52.988Z,24.63
2019-06-01T06:13:24.162Z,25.00
2019-06-01T06:15:55.019Z,24.35
2019-06-01T06:22:20.414Z,23.80
2019-06-01T06:24:50.908Z,23.56
2019-06-01T06:27:22.704Z,23.61
2019-06-01T06:29:53.445Z,23.93
2019-06-01T06:32:24.160Z,24.04
2019-06-01T06:34:55.812Z,24.15
2019-06-01T06:37:26.421Z,24.13
2019-06-01T06:39:57.116Z,24.37
2019-06-01T06:42:27.914Z,24.49
2019-06-01T06:44:58.491Z,24.64
2019-06-01T06:47:30.515Z,24.73
2019-06-01T06:50:01.173Z,25.33
2019-06-01T06:52:31.773Z,27.18
2019-06-01T06:55:02.492Z,28.35
2019-06-01T06:57:33.079Z,29.04
2019-06-01T07:00:05.469Z,29.60
2019-06-01T07:02:36.706Z,29.77
2019-06-01T07:05:07.942Z,29.91
2019-06-01T07:07:39.649Z,29.90
2019-06-01T07:10:10.694Z,30.18
2019-06-01T07:12:41.408Z,30.06
2019-06-01T07:15:12.391Z,30.06
2019-06-01T07:17:42.979Z,29.93
2019-06-01T07:20:13.683Z,30.32
2019-06-01T07:22:44.537Z,30.16
2019-06-01T07:25:15.163Z,29.81
2019-06-01T07:27:45.834Z,29.92
2019-06-01T07:30:16.808Z,30.08
2019-06-01T07:32:47.363Z,30.48
2019-06-01T07:35:17.940Z,30.79
2019-06-01T07:37:48.607Z,30.70
2019-06-01T07:40:21.000Z,30.90
2019-06-01T07:42:51.634Z,30.77
2019-06-01T07:45:22.869Z,30.61
2019-06-01T07:47:54.737Z,30.76
2019-06-01T07:50:25.976Z,31.31
2019-06-01T07:52:56.846Z,31.10
2019-06-01T07:55:27.640Z,30.81
2019-06-01T07:57:58.288Z,30.92
2019-06-01T08:00:29.871Z,31.22
2019-06-01T08:03:00.557Z,31.03
2019-06-01T08:05:32.204Z,31.28
2019-06-01T08:08:02.900Z,31.12
2019-06-01T08:10:33.543Z,31.21
2019-06-01T08:13:04.188Z,31.03
2019-06-01T08:15:36.456Z,31.37
2019-06-01T08:18:07.551Z,30.86
2019-06-01T08:20:38.145Z,30.92
2019-06-01T08:23:08.869Z,31.03
2019-06-01T08:25:39.504Z,31.10
2019-06-01T08:28:10.384Z,31.22
2019-06-01T08:30:40.950Z,31.03
2019-06-01T08:33:12.611Z,31.02
2019-06-01T08:35:43.335Z,30.85
2019-06-01T08:38:13.979Z,30.86
2019-06-01T08:40:44.619Z,30.71
2019-06-01T08:43:15.392Z,30.94
2019-06-01T08:45:46.790Z,30.86
2019-06-01T08:48:17.889Z,31.18
2019-06-01T08:50:50.249Z,31.32
2019-06-01T08:53:21.109Z,31.73
2019-06-01T08:55:51.654Z,31.83
2019-06-01T08:58:22.386Z,32.10
2019-06-01T09:00:53.012Z,32.23
2019-06-01T09:03:23.681Z,31.92
2019-06-01T09:05:54.250Z,31.23
2019-06-01T09:08:26.029Z,31.37
2019-06-01T09:10:57.304Z,31.79
2019-06-01T09:13:46.072Z,31.70
2019-06-01T09:16:16.675Z,31.05
2019-06-01T09:18:47.337Z,30.96
2019-06-01T09:21:18.005Z,31.38
2019-06-01T09:23:48.616Z,31.91
2019-06-01T09:26:20.576Z,32.26
2019-06-01T09:28:51.156Z,32.38
2019-06-01T09:31:22.140Z,31.82
2019-06-01T09:33:52.769Z,31.12
2019-06-01T09:36:23.337Z,30.80
2019-06-01T09:38:53.939Z,30.52
2019-06-01T09:41:24.522Z,30.34
2019-06-01T09:43:55.108Z,30.39
2019-06-01T09:46:26.897Z,30.05
2019-06-01T09:48:57.735Z,29.62
2019-06-01T09:51:29.476Z,29.84
2019-06-01T09:54:00.278Z,29.79
2019-06-01T09:56:33.497Z,30.31
2019-06-01T09:59:03.620Z,30.90
2019-06-01T10:01:34.450Z,30.77
2019-06-01T10:04:05.403Z,29.83
2019-06-01T10:06:36.701Z,29.23
2019-06-01T10:09:08.978Z,28.77
2019-06-01T10:11:39.549Z,28.42
2019-06-01T10:14:10.121Z,28.23
2019-06-01T10:16:40.693Z,28.03
2019-06-01T10:19:11.361Z,28.10
2019-06-01T10:21:42.202Z,28.19
2019-06-01T10:24:12.996Z,28.18
2019-06-01T10:26:43.619Z,28.39
2019-06-01T10:29:14.322Z,28.77
2019-06-01T10:31:45.011Z,28.65
2019-06-01T10:34:15.598Z,28.49
2019-06-01T10:36:46.170Z,28.09
2019-06-01T10:39:19.629Z,27.95
2019-06-01T10:41:49.129Z,27.50
2019-06-01T10:44:19.727Z,27.18
2019-06-01T10:46:50.395Z,26.97
2019-06-01T10:49:21.072Z,26.66
2019-06-01T10:51:51.827Z,26.52
2019-06-01T10:54:22.508Z,26.44
2019-06-01T10:56:53.425Z,26.33
2019-06-01T10:59:24.214Z,26.38
2019-06-01T11:01:54.794Z,26.24
2019-06-01T11:04:26.788Z,26.21
2019-06-01T11:07:03.418Z,25.97
2019-06-01T11:09:34.868Z,26.22
2019-06-01T11:12:05.801Z,26.05
2019-06-01T11:14:37.073Z,26.23
2019-06-01T11:17:07.902Z,26.31
2019-06-01T11:19:39.466Z,26.64
2019-06-01T11:22:10.458Z,27.35
2019-06-01T11:24:41.587Z,27.15
2019-06-01T11:27:12.415Z,27.07
2019-06-01T11:29:50.751Z,27.34
2019-06-01T11:32:15.284Z,27.92
2019-06-01T11:34:46.117Z,27.40
2019-06-01T11:37:16.806Z,27.86
2019-06-01T11:39:47.453Z,28.07
2019-06-01T11:42:20.034Z,28.50
2019-06-01T11:44:50.332Z,28.42
2019-06-01T11:47:20.988Z,28.03
2019-06-01T11:49:51.690Z,28.00
2019-06-01T11:52:22.364Z,27.97
2019-06-01T11:54:52.940Z,27.91
2019-06-01T11:57:24.559Z,27.98
2019-06-01T11:59:55.257Z,28.20
2019-06-01T12:02:25.817Z,28.00
2019-06-01T12:04:56.503Z,28.68
2019-06-01T12:07:27.372Z,28.50
2019-06-01T12:09:58.040Z,28.51
2019-06-01T12:12:28.757Z,28.38
2019-06-01T12:14:59.325Z,28.46
2019-06-01T12:17:30.016Z,28.62
2019-06-01T12:20:00.600Z,29.05
2019-06-01T12:22:31.394Z,29.01
2019-06-01T12:25:02.327Z,29.36
2019-06-01T12:27:33.085Z,29.05
2019-06-01T12:30:07.732Z,28.68
2019-06-01T12:32:38.324Z,28.63
2019-06-01T12:35:09.477Z,29.29
2019-06-01T12:38:00.888Z,29.25
2019-06-01T12:40:13.759Z,28.92
2019-06-01T12:42:45.940Z,28.55
2019-06-01T12:45:22.836Z,28.34
2019-06-01T12:47:55.517Z,28.53
2019-06-01T12:50:23.468Z,28.69
2019-06-01T12:52:54.209Z,28.98
2019-06-01T12:55:24.899Z,29.00
2019-06-01T12:57:55.664Z,28.43
2019-06-01T13:00:26.406Z,28.63
2019-06-01T13:03:07.198Z,28.35
2019-06-01T13:05:30.470Z,27.99
2019-06-01T13:08:02.996Z,28.24
2019-06-01T13:10:33.459Z,28.17
2019-06-01T13:13:04.050Z,27.55
2019-06-01T13:15:34.764Z,27.28
2019-06-01T13:18:05.338Z,27.16
2019-06-01T13:20:35.921Z,27.38
2019-06-01T13:23:06.601Z,27.22
2019-06-01T13:25:37.378Z,27.68
2019-06-01T13:28:08.249Z,27.91
2019-06-01T13:30:38.941Z,28.41
2019-06-01T13:33:09.614Z,28.51
2019-06-01T13:35:40.305Z,28.37
2019-06-01T13:38:12.490Z,28.68
2019-06-01T13:40:43.265Z,28.14
2019-06-01T13:43:14.435Z,27.95
2019-06-01T13:45:45.289Z,27.44
2019-06-01T13:48:15.891Z,27.30
2019-06-01T13:50:47.766Z,27.20
2019-06-01T13:53:18.403Z,27.11
2019-06-01T13:55:50.618Z,27.32
2019-06-01T13:58:21.297Z,27.41
2019-06-01T14:00:53.216Z,27.05
2019-06-01T14:03:24.037Z,26.70
2019-06-01T14:05:55.800Z,26.83
2019-06-01T14:08:29.292Z,26.77
2019-06-01T14:11:00.412Z,26.84
2019-06-01T14:13:31.266Z,27.39
2019-06-01T14:16:01.876Z,27.85
2019-06-01T14:18:32.612Z,27.73
2019-06-01T14:21:03.356Z,27.77
2019-06-01T14:23:34.418Z,27.70
2019-06-01T14:26:05.356Z,27.29
2019-06-01T14:28:35.939Z,27.18
2019-06-01T14:31:06.772Z,27.29
2019-06-01T14:33:37.358Z,27.27
2019-06-01T14:36:08.362Z,27.52
2019-06-01T14:38:46.827Z,27.84
2019-06-01T14:41:14.932Z,27.98
2019-06-01T14:43:46.887Z,28.24
2019-06-01T14:46:17.665Z,28.16
2019-06-01T14:48:49.350Z,28.18
2019-06-01T14:51:20.065Z,28.28
2019-06-01T14:53:51.660Z,28.06
2019-06-01T14:56:22.462Z,28.29
2019-06-01T14:58:53.988Z,28.10
2019-06-01T15:01:32.432Z,28.05
2019-06-01T15:03:59.728Z,27.99
2019-06-01T15:06:30.766Z,28.13
2019-06-01T15:09:15.557Z,28.24
2019-06-01T15:11:35.426Z,28.10
2019-06-01T15:14:07.048Z,27.53
2019-06-01T15:16:37.751Z,27.32
2019-06-01T15:19:08.376Z,27.63
2019-06-01T15:21:39.226Z,27.90
2019-06-01T15:24:09.917Z,27.94
2019-06-01T15:26:40.725Z,27.82
2019-06-01T15:29:11.374Z,27.93
2019-06-01T15:31:42.071Z,27.62
2019-06-01T15:34:12.626Z,27.82
2019-06-01T15:36:43.381Z,27.88
2019-06-01T15:39:24.383Z,27.40
2019-06-01T15:41:46.289Z,26.98
2019-06-01T15:44:17.586Z,26.93
2019-06-01T15:46:48.443Z,27.05
2019-06-01T15:49:22.079Z,26.99
2019-06-01T15:51:53.727Z,27.16
2019-06-01T15:54:27.014Z,27.16
2019-06-01T15:56:58.514Z,27.27
2019-06-01T15:59:29.200Z,27.35
2019-06-01T16:02:13.358Z,27.28
2019-06-01T16:04:55.156Z,27.28
2019-06-01T16:07:33.194Z,27.30
2019-06-01T16:10:13.721Z,27.31
2019-06-01T16:13:04.450Z,27.18
2019-06-01T16:15:35.438Z,27.20
2019-06-01T16:18:06.109Z,27.19
2019-06-01T16:20:36.791Z,27.17
2019-06-01T16:23:07.864Z,26.86
2019-06-01T16:25:38.580Z,26.74
2019-06-01T16:28:09.258Z,26.72
2019-06-01T16:30:41.681Z,26.55
2019-06-01T17:30:31.863Z,25.46
2019-06-01T17:33:02.625Z,25.40
2019-06-01T17:35:35.982Z,25.43
2019-06-01T17:38:07.300Z,25.42
2019-06-01T17:40:42.545Z,25.45
2019-06-01T17:43:10.688Z,25.46
2019-06-01T17:45:41.476Z,25.48
2019-06-01T17:48:24.719Z,25.51
2019-06-01T17:50:44.460Z,25.47
2019-06-01T17:53:15.146Z,25.52
2019-06-01T17:55:46.413Z,25.50
2019-06-01T17:58:17.570Z,25.48
2019-06-01T18:00:48.677Z,25.43
2019-06-01T18:03:19.363Z,25.38
2019-06-01T18:05:50.186Z,25.34
2019-06-01T18:08:21.523Z,25.32
2019-06-01T18:10:54.562Z,25.32
2019-06-01T18:13:24.840Z,25.26
2019-06-01T18:15:55.934Z,25.21
2019-06-01T18:18:26.722Z,25.13
2019-06-01T18:20:57.457Z,25.07
2019-06-01T18:23:28.195Z,24.99
2019-06-01T18:25:58.969Z,24.90
2019-06-01T18:28:30.297Z,24.85
2019-06-01T18:31:02.584Z,24.82
2019-06-01T18:33:34.621Z,24.78
2019-06-01T18:36:07.455Z,24.72
2019-06-01T18:38:39.347Z,24.65
2019-06-01T18:41:18.293Z,24.56
2019-06-01T18:43:43.391Z,24.50
2019-06-01T18:46:14.456Z,24.42
2019-06-01T18:48:45.315Z,24.34
2019-06-01T18:51:16.431Z,24.25
2019-06-01T18:53:47.161Z,24.15
2019-06-01T18:56:17.939Z,24.01
2019-06-01T18:58:50.125Z,23.85
2019-06-01T19:01:21.415Z,23.70
2019-06-01T19:03:52.439Z,23.54
2019-06-01T19:06:23.152Z,23.45
2019-06-01T19:08:54.565Z,23.37
2019-06-01T19:11:35.420Z,23.39
2019-06-01T19:14:00.354Z,23.39
2019-06-01T19:16:31.980Z,23.41
2019-06-01T19:19:04.287Z,23.54
2019-06-01T19:21:35.746Z,23.46
2019-06-01T19:24:06.490Z,23.30
2019-06-01T19:26:38.269Z,23.13
2019-06-01T19:29:09.139Z,23.09
2019-06-01T19:31:39.966Z,22.93
2019-06-01T19:34:11.006Z,22.74
2019-06-01T19:36:44.028Z,22.63
2019-06-01T19:39:15.523Z,22.66
2019-06-01T19:41:47.867Z,22.55
2019-06-01T19:44:19.124Z,22.43
2019-06-01T19:46:50.141Z,22.28
2019-06-01T19:49:21.544Z,22.06
2019-06-01T19:51:52.955Z,22.02
2019-06-01T19:54:23.765Z,22.03
2019-06-01T19:56:54.476Z,22.05
2019-06-01T19:59:25.432Z,21.93
2019-06-01T20:01:56.317Z,21.84
2019-06-01T20:04:27.756Z,21.79
2019-06-01T20:06:59.016Z,21.75
2019-06-01T20:09:31.771Z,21.74
2019-06-01T20:12:10.497Z,21.64
2019-06-01T20:14:35.961Z,21.42
2019-06-01T20:17:08.595Z,21.25
2019-06-01T20:19:42.425Z,21.14
2019-06-01T20:22:13.471Z,21.03
2019-06-01T20:24:50.131Z,21.00
2019-06-01T20:27:21.607Z,20.87
2019-06-01T20:29:53.926Z,20.89
2019-06-01T20:32:24.750Z,20.87
2019-06-01T20:34:58.747Z,20.94
2019-06-01T20:37:30.217Z,20.79
2019-06-01T20:40:01.174Z,20.67
2019-06-01T20:42:33.034Z,20.71
2019-06-01T20:45:05.915Z,20.54
2019-06-01T20:47:37.015Z,20.47
2019-06-01T20:50:09.121Z,20.59
2019-06-01T20:52:39.699Z,20.59
2019-06-01T20:55:12.884Z,20.64
2019-06-01T20:57:43.515Z,20.47
2019-06-01T21:00:15.918Z,20.33
2019-06-01T21:02:47.263Z,20.24
2019-06-01T21:05:22.012Z,20.31
2019-06-01T21:07:56.877Z,20.22
2019-06-01T21:10:25.182Z,20.07
2019-06-01T21:12:55.960Z,19.90
2019-06-01T21:15:26.676Z,19.95
2019-06-01T21:17:57.270Z,19.95
2019-06-01T21:20:30.025Z,19.98
2019-06-01T21:23:00.923Z,20.00
2019-06-01T21:25:31.694Z,19.93
2019-06-01T21:28:02.477Z,19.90
2019-06-01T21:30:33.223Z,20.00
2019-06-01T21:33:03.943Z,19.90
2019-06-01T21:35:34.664Z,20.01
2019-06-01T21:38:07.685Z,19.81
2019-06-01T21:40:38.522Z,19.72
2019-06-01T21:43:23.500Z,19.65
2019-06-01T21:45:42.063Z,19.59
2019-06-01T21:48:12.833Z,19.65
2019-06-01T21:50:43.907Z,19.64
2019-06-01T21:53:16.198Z,19.66
2019-06-01T21:55:46.889Z,19.70
2019-06-01T21:58:18.800Z,19.66
2019-06-01T22:00:49.951Z,19.64
2019-06-01T22:03:21.119Z,19.71
2019-06-01T22:05:51.916Z,19.67
2019-06-01T22:08:23.254Z,19.56
2019-06-01T22:10:54.089Z,19.52
2019-06-01T22:13:27.095Z,19.55
2019-06-01T22:15:57.461Z,19.52
2019-06-01T22:18:28.145Z,19.52
2019-06-01T22:20:58.827Z,19.47
2019-06-01T22:23:29.543Z,19.41
2019-06-01T22:26:01.176Z,19.33
2019-06-01T22:28:31.857Z,19.31
2019-06-01T22:31:02.556Z,19.35
2019-06-01T22:33:33.252Z,19.31
2019-06-01T22:36:04.017Z,19.31
2019-06-01T22:38:34.996Z,19.32
2019-06-01T22:41:05.625Z,19.34
2019-06-01T22:43:45.897Z,19.39
2019-06-01T22:46:08.709Z,19.30
2019-06-01T22:48:39.412Z,19.30
2019-06-01T22:51:10.091Z,19.26
2019-06-01T22:53:40.910Z,19.25
2019-06-01T22:56:11.593Z,19.25
2019-06-01T22:58:42.365Z,19.27
2019-06-01T23:01:13.057Z,19.30
2019-06-01T23:03:43.738Z,19.34
2019-06-01T23:06:16.008Z,19.33
2019-06-01T23:08:46.809Z,19.30
2019-06-01T23:11:17.508Z,19.16
2019-06-01T23:13:53.368Z,19.08
2019-06-01T23:16:21.567Z,19.06
2019-06-01T23:18:52.260Z,18.99
2019-06-01T23:21:23.710Z,19.03
2019-06-01T23:23:54.584Z,19.03
2019-06-01T23:26:26.157Z,19.03
2019-06-01T23:28:57.130Z,19.03
2019-06-01T23:31:28.492Z,19.01
2019-06-01T23:33:59.244Z,19.02
2019-06-01T23:36:30.676Z,19.06
2019-06-01T23:39:02.561Z,18.99
2019-06-01T23:41:33.305Z,18.81
2019-06-01T23:44:11.861Z,18.83
2019-06-01T23:46:36.859Z,18.91
2019-06-01T23:49:07.576Z,18.86
2019-06-01T23:51:38.280Z,18.81
2019-06-01T23:54:08.962Z,18.74
2019-06-01T23:56:39.647Z,18.62
2019-06-01T23:59:10.337Z,18.63
